sensor_id;sensor_type;location;lat;lon;timestamp;pressure;altitude;pressure_sealevel;temperature;humidity
39105;BME280;46464;51.154;13.812;2022-10-16T00:00:46;99039.94;;;13.78;100.00
39105;BME280;46464;51.154;13.812;2022-10-16T00:03:13;99049.13;;;13.76;100.00
39105;BME280;46464;51.154;13.812;2022-10-16T00:05:40;99047.38;;;13.75;100.00
39105;BME280;46464;51.154;13.812;2022-10-16T00:08:07;99054.53;;;13.76;100.00
39105;BME280;46464;51.154;13.812;2022-10-16T00:10:34;99054.72;;;13.72;100.00
39105;BME280;46464;51.154;13.812;2022-10-16T00:13:01;99053.94;;;13.70;100.00
39105;BME280;46464;51.154;13.812;2022-10-16T00:15:27;99051.44;;;13.67;100.00
39105;BME280;46464;51.154;13.812;2022-10-16T00:17:54;99061.56;;;13.64;100.00
39105;BME280;46464;51.154;13.812;2022-10-16T00:20:20;99058.97;;;13.62;100.00
39105;BME280;46464;51.154;13.812;2022-10-16T00:22:47;99066.41;;;13.59;100.00
39105;BME280;46464;51.154;13.812;2022-10-16T00:25:13;99065.75;;;13.55;100.00
39105;BME280;46464;51.154;13.812;2022-10-16T00:27:39;99067.66;;;13.53;100.00
39105;BME280;46464;51.154;13.812;2022-10-16T00:30:06;99073.28;;;13.50;100.00
39105;BME280;46464;51.154;13.812;2022-10-16T00:32:34;99070.69;;;13.48;100.00
39105;BME280;46464;51.154;13.812;2022-10-16T00:35:00;99075.31;;;13.46;100.00
39105;BME280;46464;51.154;13.812;2022-10-16T00:37:27;99079.81;;;13.46;100.00
39105;BME280;46464;51.154;13.812;2022-10-16T00:39:53;99078.78;;;13.48;100.00
39105;BME280;46464;51.154;13.812;2022-10-16T00:42:20;99077.03;;;13.47;100.00
39105;BME280;46464;51.154;13.812;2022-10-16T00:44:50;99078.84;;;13.47;100.00
39105;BME280;46464;51.154;13.812;2022-10-16T00:47:29;99079.63;;;13.49;100.00
39105;BME280;46464;51.154;13.812;2022-10-16T00:50:07;99081.47;;;13.48;100.00
39105;BME280;46464;51.154;13.812;2022-10-16T00:52:35;99079.41;;;13.52;100.00
39105;BME280;46464;51.154;13.812;2022-10-16T00:55:03;99081.16;;;13.53;100.00
39105;BME280;46464;51.154;13.812;2022-10-16T00:57:30;99077.59;;;13.52;100.00
39105;BME280;46464;51.154;13.812;2022-10-16T00:59:57;99082.03;;;13.53;100.00
39105;BME280;46464;51.154;13.812;2022-10-16T01:02:23;99086.47;;;13.54;100.00
39105;BME280;46464;51.154;13.812;2022-10-16T01:04:51;99085.50;;;13.55;100.00
39105;BME280;46464;51.154;13.812;2022-10-16T01:12:46;99079.22;;;13.55;100.00
39105;BME280;46464;51.154;13.812;2022-10-16T01:18:04;99088.00;;;13.59;100.00
39105;BME280;46464;51.154;13.812;2022-10-16T01:20:33;99084.34;;;13.60;100.00
39105;BME280;46464;51.154;13.812;2022-10-16T01:28:11;99087.50;;;13.66;100.00
39105;BME280;46464;51.154;13.812;2022-10-16T01:30:39;99087.41;;;13.68;100.00
39105;BME280;46464;51.154;13.812;2022-10-16T01:33:17;99093.56;;;13.70;100.00
39105;BME280;46464;51.154;13.812;2022-10-16T01:35:46;99102.44;;;13.72;100.00
39105;BME280;46464;51.154;13.812;2022-10-16T01:40:48;99104.53;;;13.81;100.00
39105;BME280;46464;51.154;13.812;2022-10-16T01:43:20;99093.63;;;13.83;100.00
39105;BME280;46464;51.154;13.812;2022-10-16T01:45:48;99098.00;;;13.85;100.00
39105;BME280;46464;51.154;13.812;2022-10-16T01:48:17;99094.84;;;13.92;100.00
39105;BME280;46464;51.154;13.812;2022-10-16T01:50:44;99091.13;;;13.94;100.00
39105;BME280;46464;51.154;13.812;2022-10-16T01:53:11;99081.34;;;13.92;100.00
39105;BME280;46464;51.154;13.812;2022-10-16T01:55:39;99081.34;;;13.92;100.00
39105;BME280;46464;51.154;13.812;2022-10-16T01:58:11;99080.09;;;13.97;100.00
39105;BME280;46464;51.154;13.812;2022-10-16T02:00:39;99078.16;;;13.99;100.00
39105;BME280;46464;51.154;13.812;2022-10-16T02:03:06;99079.03;;;14.00;100.00
39105;BME280;46464;51.154;13.812;2022-10-16T02:05:41;99081.97;;;14.10;100.00
39105;BME280;46464;51.154;13.812;2022-10-16T02:08:09;99089.81;;;14.27;100.00
39105;BME280;46464;51.154;13.812;2022-10-16T02:10:36;99096.13;;;14.41;100.00
39105;BME280;46464;51.154;13.812;2022-10-16T02:13:05;99101.13;;;14.47;100.00
39105;BME280;46464;51.154;13.812;2022-10-16T02:15:32;99104.25;;;14.53;100.00
39105;BME280;46464;51.154;13.812;2022-10-16T02:17:59;99100.28;;;14.59;100.00
39105;BME280;46464;51.154;13.812;2022-10-16T02:20:27;99094.66;;;14.62;100.00
39105;BME280;46464;51.154;13.812;2022-10-16T02:22:54;99105.59;;;14.61;100.00
39105;BME280;46464;51.154;13.812;2022-10-16T02:25:24;99109.88;;;14.65;100.00
39105;BME280;46464;51.154;13.812;2022-10-16T02:30:29;99103.91;;;14.73;100.00
39105;BME280;46464;51.154;13.812;2022-10-16T02:32:58;99109.75;;;14.79;100.00
39105;BME280;46464;51.154;13.812;2022-10-16T02:35:26;99109.03;;;14.77;100.00
39105;BME280;46464;51.154;13.812;2022-10-16T02:37:53;99106.19;;;14.79;100.00
39105;BME280;46464;51.154;13.812;2022-10-16T02:40:20;99111.72;;;14.77;100.00
39105;BME280;46464;51.154;13.812;2022-10-16T02:42:51;99110.00;;;14.76;100.00
39105;BME280;46464;51.154;13.812;2022-10-16T02:45:18;99115.06;;;14.81;100.00
39105;BME280;46464;51.154;13.812;2022-10-16T02:47:45;99117.03;;;14.79;100.00
39105;BME280;46464;51.154;13.812;2022-10-16T02:50:11;99121.66;;;14.77;100.00
39105;BME280;46464;51.154;13.812;2022-10-16T02:52:38;99117.69;;;14.82;100.00
39105;BME280;46464;51.154;13.812;2022-10-16T02:55:04;99116.06;;;14.80;100.00
39105;BME280;46464;51.154;13.812;2022-10-16T02:57:31;99106.31;;;14.77;100.00
39105;BME280;46464;51.154;13.812;2022-10-16T02:59:58;99105.53;;;14.75;100.00
39105;BME280;46464;51.154;13.812;2022-10-16T03:02:24;99111.59;;;14.79;100.00
39105;BME280;46464;51.154;13.812;2022-10-16T03:04:51;99110.72;;;14.78;100.00
39105;BME280;46464;51.154;13.812;2022-10-16T03:07:17;99105.53;;;14.75;100.00
39105;BME280;46464;51.154;13.812;2022-10-16T03:09:44;99105.66;;;14.74;100.00
39105;BME280;46464;51.154;13.812;2022-10-16T03:12:10;99105.66;;;14.74;100.00
39105;BME280;46464;51.154;13.812;2022-10-16T03:14:38;99103.91;;;14.73;100.00
39105;BME280;46464;51.154;13.812;2022-10-16T03:17:06;99113.78;;;14.74;100.00
39105;BME280;46464;51.154;13.812;2022-10-16T03:19:32;99114.63;;;14.74;100.00
39105;BME280;46464;51.154;13.812;2022-10-16T03:21:58;99125.31;;;14.76;100.00
39105;BME280;46464;51.154;13.812;2022-10-16T03:24:25;99117.44;;;14.73;100.00
39105;BME280;46464;51.154;13.812;2022-10-16T03:26:51;99123.81;;;14.72;100.00
39105;BME280;46464;51.154;13.812;2022-10-16T03:29:18;99112.78;;;14.75;100.00
39105;BME280;46464;51.154;13.812;2022-10-16T03:31:44;99117.44;;;14.73;100.00
39105;BME280;46464;51.154;13.812;2022-10-16T03:34:11;99122.06;;;14.71;100.00
39105;BME280;46464;51.154;13.812;2022-10-16T03:36:37;99131.16;;;14.69;100.00
39105;BME280;46464;51.154;13.812;2022-10-16T03:39:04;99130.84;;;14.74;100.00
39105;BME280;46464;51.154;13.812;2022-10-16T03:41:30;99120.13;;;14.73;100.00
39105;BME280;46464;51.154;13.812;2022-10-16T03:43:56;99118.50;;;14.70;100.00
39105;BME280;46464;51.154;13.812;2022-10-16T03:46:23;99128.56;;;14.68;100.00
39105;BME280;46464;51.154;13.812;2022-10-16T03:48:49;99131.25;;;14.68;100.00
39105;BME280;46464;51.154;13.812;2022-10-16T03:51:16;99139.59;;;14.65;100.00
39105;BME280;46464;51.154;13.812;2022-10-16T03:53:42;99140.63;;;14.62;100.00
39105;BME280;46464;51.154;13.812;2022-10-16T03:56:09;99142.88;;;14.56;100.00
39105;BME280;46464;51.154;13.812;2022-10-16T03:58:35;99141.47;;;14.50;100.00
39105;BME280;46464;51.154;13.812;2022-10-16T04:01:02;99144.47;;;14.45;100.00
39105;BME280;46464;51.154;13.812;2022-10-16T04:03:28;99147.28;;;14.44;100.00
39105;BME280;46464;51.154;13.812;2022-10-16T04:05:55;99148.25;;;14.43;100.00
39105;BME280;46464;51.154;13.812;2022-10-16T04:08:21;99147.38;;;14.42;100.00
39105;BME280;46464;51.154;13.812;2022-10-16T04:10:48;99145.63;;;14.41;100.00
39105;BME280;46464;51.154;13.812;2022-10-16T04:13:15;99147.47;;;14.41;100.00
39105;BME280;46464;51.154;13.812;2022-10-16T04:15:41;99145.00;;;14.38;100.00
39105;BME280;46464;51.154;13.812;2022-10-16T04:18:07;99149.34;;;14.40;100.00
39105;BME280;46464;51.154;13.812;2022-10-16T04:20:34;99157.44;;;14.40;100.00
39105;BME280;46464;51.154;13.812;2022-10-16T04:23:00;99163.28;;;14.47;100.00
39105;BME280;46464;51.154;13.812;2022-10-16T04:25:27;99159.63;;;14.48;100.00
39105;BME280;46464;51.154;13.812;2022-10-16T04:27:53;99167.63;;;14.49;100.00
39105;BME280;46464;51.154;13.812;2022-10-16T04:30:20;99165.81;;;14.50;100.00
39105;BME280;46464;51.154;13.812;2022-10-16T04:32:48;99167.72;;;14.48;100.00
39105;BME280;46464;51.154;13.812;2022-10-16T04:35:16;99157.03;;;14.46;100.00
39105;BME280;46464;51.154;13.812;2022-10-16T04:37:42;99155.28;;;14.45;100.00
39105;BME280;46464;51.154;13.812;2022-10-16T04:40:08;99161.34;;;14.49;100.00
39105;BME280;46464;51.154;13.812;2022-10-16T04:42:35;99166.75;;;14.49;100.00
39105;BME280;46464;51.154;13.812;2022-10-16T04:45:02;99172.16;;;14.49;100.00
39105;BME280;46464;51.154;13.812;2022-10-16T04:47:28;99174.88;;;14.49;100.00
39105;BME280;46464;51.154;13.812;2022-10-16T04:49:55;99172.16;;;14.49;100.00
39105;BME280;46464;51.154;13.812;2022-10-16T04:52:23;99174.75;;;14.50;100.00
39105;BME280;46464;51.154;13.812;2022-10-16T04:54:51;99164.91;;;14.49;100.00
39105;BME280;46464;51.154;13.812;2022-10-16T04:57:17;99155.94;;;14.49;100.00
39105;BME280;46464;51.154;13.812;2022-10-16T04:59:44;99158.53;;;14.50;100.00
39105;BME280;46464;51.154;13.812;2022-10-16T05:02:10;99167.50;;;14.51;100.00
39105;BME280;46464;51.154;13.812;2022-10-16T05:04:37;99164.25;;;14.46;100.00
39105;BME280;46464;51.154;13.812;2022-10-16T05:07:03;99173.31;;;14.45;100.00
39105;BME280;46464;51.154;13.812;2022-10-16T05:09:29;99174.31;;;14.44;100.00
39105;BME280;46464;51.154;13.812;2022-10-16T05:11:56;99175.16;;;14.44;100.00
39105;BME280;46464;51.154;13.812;2022-10-16T05:14:22;99181.34;;;14.46;100.00
39105;BME280;46464;51.154;13.812;2022-10-16T05:16:49;99173.13;;;14.48;100.00
39105;BME280;46464;51.154;13.812;2022-10-16T05:19:15;99167.06;;;14.44;100.00
39105;BME280;46464;51.154;13.812;2022-10-16T05:21:57;99175.84;;;14.48;100.00
39105;BME280;46464;51.154;13.812;2022-10-16T05:24:23;99188.56;;;14.46;100.00
39105;BME280;46464;51.154;13.812;2022-10-16T05:26:50;99191.38;;;14.44;100.00
39105;BME280;46464;51.154;13.812;2022-10-16T05:29:16;99194.19;;;14.43;100.00
39105;BME280;46464;51.154;13.812;2022-10-16T05:31:43;99195.47;;;14.37;100.00
39105;BME280;46464;51.154;13.812;2022-10-16T05:34:09;99188.72;;;14.30;100.00
39105;BME280;46464;51.154;13.812;2022-10-16T05:36:36;99190.00;;;14.24;100.00
39105;BME280;46464;51.154;13.812;2022-10-16T05:39:02;99193.00;;;14.19;100.00
39105;BME280;46464;51.154;13.812;2022-10-16T05:41:29;99187.03;;;14.14;100.00
39105;BME280;46464;51.154;13.812;2022-10-16T05:43:55;99184.44;;;14.13;100.00
39105;BME280;46464;51.154;13.812;2022-10-16T05:46:22;99188.19;;;14.10;100.00
39105;BME280;46464;51.154;13.812;2022-10-16T05:48:51;99198.13;;;14.10;100.00
39105;BME280;46464;51.154;13.812;2022-10-16T05:51:17;99194.56;;;14.09;100.00
39105;BME280;46464;51.154;13.812;2022-10-16T05:53:44;99202.75;;;14.08;100.00
39105;BME280;46464;51.154;13.812;2022-10-16T05:56:10;99210.97;;;14.06;100.00
39105;BME280;46464;51.154;13.812;2022-10-16T05:58:38;99210.84;;;14.08;100.00
39105;BME280;46464;51.154;13.812;2022-10-16T06:01:07;99225.34;;;14.07;100.00
39105;BME280;46464;51.154;13.812;2022-10-16T06:03:35;99219.84;;;14.08;100.00
39105;BME280;46464;51.154;13.812;2022-10-16T06:06:35;99230.53;;;14.10;100.00
39105;BME280;46464;51.154;13.812;2022-10-16T06:08:56;99230.38;;;14.13;100.00
39105;BME280;46464;51.154;13.812;2022-10-16T06:11:27;99222.81;;;14.18;100.00
39105;BME280;46464;51.154;13.812;2022-10-16T06:13:55;99226.19;;;14.22;100.00
39105;BME280;46464;51.154;13.812;2022-10-16T06:16:23;99241.03;;;14.29;100.00
39105;BME280;46464;51.154;13.812;2022-10-16T06:18:50;99236.22;;;14.34;100.00
39105;BME280;46464;51.154;13.812;2022-10-16T06:21:18;99237.91;;;14.35;100.00
39105;BME280;46464;51.154;13.812;2022-10-16T06:23:45;99244.88;;;14.39;100.00
39105;BME280;46464;51.154;13.812;2022-10-16T06:26:15;99247.28;;;14.44;100.00
39105;BME280;46464;51.154;13.812;2022-10-16T06:28:42;99258.44;;;14.52;100.00
39105;BME280;46464;51.154;13.812;2022-10-16T06:31:09;99268.00;;;14.58;100.00
39105;BME280;46464;51.154;13.812;2022-10-16T06:33:37;99261.53;;;14.60;100.00
39105;BME280;46464;51.154;13.812;2022-10-16T06:36:05;99267.69;;;14.62;100.00
39105;BME280;46464;51.154;13.812;2022-10-16T06:38:32;99255.84;;;14.65;100.00
39105;BME280;46464;51.154;13.812;2022-10-16T06:40:59;99259.31;;;14.67;100.00
39105;BME280;46464;51.154;13.812;2022-10-16T06:43:25;99261.91;;;14.68;100.00
39105;BME280;46464;51.154;13.812;2022-10-16T06:45:55;99271.66;;;14.71;100.00
39105;BME280;46464;51.154;13.812;2022-10-16T06:48:23;99273.88;;;14.79;100.00
39105;BME280;46464;51.154;13.812;2022-10-16T06:53:23;99280.84;;;14.96;100.00
39105;BME280;46464;51.154;13.812;2022-10-16T06:55:49;99273.84;;;15.06;100.00
39105;BME280;46464;51.154;13.812;2022-10-16T06:58:16;99277.53;;;15.18;100.00
39105;BME280;46464;51.154;13.812;2022-10-16T07:00:42;99288.53;;;15.29;100.00
39105;BME280;46464;51.154;13.812;2022-10-16T07:03:09;99295.81;;;15.42;100.00
39105;BME280;46464;51.154;13.812;2022-10-16T07:05:39;99291.47;;;15.52;100.00
39105;BME280;46464;51.154;13.812;2022-10-16T07:08:05;99303.28;;;15.64;100.00
39105;BME280;46464;51.154;13.812;2022-10-16T07:10:32;99301.88;;;15.71;100.00
39105;BME280;46464;51.154;13.812;2022-10-16T07:12:59;99312.53;;;15.74;100.00
39105;BME280;46464;51.154;13.812;2022-10-16T07:15:26;99313.19;;;15.78;100.00
39105;BME280;46464;51.154;13.812;2022-10-16T07:17:52;99312.09;;;15.80;100.00
39105;BME280;46464;51.154;13.812;2022-10-16T07:20:19;99315.78;;;15.79;100.00
39105;BME280;46464;51.154;13.812;2022-10-16T07:22:46;99317.31;;;15.84;100.00
39105;BME280;46464;51.154;13.812;2022-10-16T07:25:13;99328.69;;;15.89;100.00
39105;BME280;46464;51.154;13.812;2022-10-16T07:27:39;99335.72;;;15.91;100.00
39105;BME280;46464;51.154;13.812;2022-10-16T07:30:06;99331.75;;;15.97;100.00
39105;BME280;46464;51.154;13.812;2022-10-16T07:32:34;99333.38;;;16.00;100.00
39105;BME280;46464;51.154;13.812;2022-10-16T07:35:01;99340.53;;;16.01;100.00
39105;BME280;46464;51.154;13.812;2022-10-16T07:37:27;99345.72;;;16.04;100.00
39105;BME280;46464;51.154;13.812;2022-10-16T07:39:54;99347.25;;;16.08;100.00
39105;BME280;46464;51.154;13.812;2022-10-16T07:42:21;99354.19;;;16.12;100.00
39105;BME280;46464;51.154;13.812;2022-10-16T07:44:47;99354.19;;;16.12;100.00
39105;BME280;46464;51.154;13.812;2022-10-16T07:47:14;99355.59;;;16.18;100.00
39105;BME280;46464;51.154;13.812;2022-10-16T07:49:40;99358.31;;;16.18;100.00
39105;BME280;46464;51.154;13.812;2022-10-16T07:52:07;99359.94;;;16.20;100.00
39105;BME280;46464;51.154;13.812;2022-10-16T07:54:33;99363.19;;;16.25;100.00
39105;BME280;46464;51.154;13.812;2022-10-16T07:57:00;99360.22;;;16.28;100.00
39105;BME280;46464;51.154;13.812;2022-10-16T07:59:26;99365.44;;;16.32;100.00
39105;BME280;46464;51.154;13.812;2022-10-16T08:01:53;99369.91;;;16.33;100.00
39105;BME280;46464;51.154;13.812;2022-10-16T08:04:19;99368.81;;;16.35;100.00
39105;BME280;46464;51.154;13.812;2022-10-16T08:06:45;99363.91;;;16.40;100.00
39105;BME280;46464;51.154;13.812;2022-10-16T08:09:12;99361.53;;;16.49;100.00
39105;BME280;46464;51.154;13.812;2022-10-16T08:11:38;99353.59;;;16.58;100.00
39105;BME280;46464;51.154;13.812;2022-10-16T08:14:05;99350.44;;;16.65;100.00
39105;BME280;46464;51.154;13.812;2022-10-16T08:16:32;99346.72;;;16.66;100.00
39105;BME280;46464;51.154;13.812;2022-10-16T08:18:59;99356.47;;;16.68;100.00
39105;BME280;46464;51.154;13.812;2022-10-16T08:21:25;99351.81;;;16.70;100.00
39105;BME280;46464;51.154;13.812;2022-10-16T08:23:52;99361.81;;;16.70;100.00
39105;BME280;46464;51.154;13.812;2022-10-16T08:26:23;99368.75;;;16.74;100.00
39105;BME280;46464;51.154;13.812;2022-10-16T08:28:50;99361.47;;;16.74;100.00
39105;BME280;46464;51.154;13.812;2022-10-16T08:31:18;99362.75;;;16.82;100.00
39105;BME280;46464;51.154;13.812;2022-10-16T08:33:45;99356.78;;;16.89;100.00
39105;BME280;46464;51.154;13.812;2022-10-16T08:36:13;99365.03;;;17.01;100.00
39105;BME280;46464;51.154;13.812;2022-10-16T08:38:40;99366.31;;;17.08;99.13
39105;BME280;46464;51.154;13.812;2022-10-16T08:46:27;99372.41;;;17.47;100.00
39105;BME280;46464;51.154;13.812;2022-10-16T08:48:54;99376.91;;;17.59;98.42
39105;BME280;46464;51.154;13.812;2022-10-16T08:51:26;99374.47;;;17.68;97.70
39105;BME280;46464;51.154;13.812;2022-10-16T08:53:58;99367.59;;;17.75;98.07
39105;BME280;46464;51.154;13.812;2022-10-16T08:56:25;99355.00;;;17.85;98.69
39105;BME280;46464;51.154;13.812;2022-10-16T08:58:52;99366.34;;;18.15;98.39
39105;BME280;46464;51.154;13.812;2022-10-16T09:01:47;99369.31;;;18.34;97.25
39105;BME280;46464;51.154;13.812;2022-10-16T09:06:50;99373.41;;;18.63;94.54
39105;BME280;46464;51.154;13.812;2022-10-16T09:19:46;99359.91;;;19.72;89.95
39105;BME280;46464;51.154;13.812;2022-10-16T09:22:16;99357.66;;;19.77;87.54
39105;BME280;46464;51.154;13.812;2022-10-16T09:24:44;99376.72;;;19.77;88.15
39105;BME280;46464;51.154;13.812;2022-10-16T09:27:11;99394.88;;;19.66;84.07
39105;BME280;46464;51.154;13.812;2022-10-16T09:29:38;99394.44;;;19.82;86.84
39105;BME280;46464;51.154;13.812;2022-10-16T09:32:10;99392.75;;;20.03;84.44
39105;BME280;46464;51.154;13.812;2022-10-16T09:34:39;99384.94;;;19.98;82.34
39105;BME280;46464;51.154;13.812;2022-10-16T09:37:11;99390.34;;;20.09;84.62
39105;BME280;46464;51.154;13.812;2022-10-16T09:39:43;99383.50;;;20.15;82.15
39105;BME280;46464;51.154;13.812;2022-10-16T09:42:11;99391.75;;;20.25;84.90
39105;BME280;46464;51.154;13.812;2022-10-16T09:44:40;99386.34;;;20.35;80.33
39105;BME280;46464;51.154;13.812;2022-10-16T09:47:12;99393.09;;;20.40;80.35
39105;BME280;46464;51.154;13.812;2022-10-16T09:49:50;99399.47;;;20.20;80.72
39105;BME280;46464;51.154;13.812;2022-10-16T09:52:16;99387.88;;;20.06;79.93
39105;BME280;46464;51.154;13.812;2022-10-16T09:54:54;99396.22;;;20.05;80.40
39105;BME280;46464;51.154;13.812;2022-10-16T09:57:21;99398.94;;;19.83;80.76
39105;BME280;46464;51.154;13.812;2022-10-16T09:59:49;99409.84;;;19.72;82.44
39105;BME280;46464;51.154;13.812;2022-10-16T10:02:16;99409.84;;;19.72;85.03
39105;BME280;46464;51.154;13.812;2022-10-16T10:04:46;99414.22;;;19.96;85.24
39105;BME280;46464;51.154;13.812;2022-10-16T10:07:56;99417.81;;;20.18;84.14
39105;BME280;46464;51.154;13.812;2022-10-16T10:10:03;99410.28;;;20.31;83.00
39105;BME280;46464;51.154;13.812;2022-10-16T10:12:31;99406.44;;;20.34;83.08
39105;BME280;46464;51.154;13.812;2022-10-16T10:15:04;99409.16;;;20.34;80.82
39105;BME280;46464;51.154;13.812;2022-10-16T10:17:32;99416.88;;;20.28;82.42
39105;BME280;46464;51.154;13.812;2022-10-16T10:22:44;99419.28;;;20.43;82.47
39105;BME280;46464;51.154;13.812;2022-10-16T10:28:00;99421.63;;;20.78;79.76
39105;BME280;46464;51.154;13.812;2022-10-16T10:33:28;99439.69;;;21.01;77.94
39105;BME280;46464;51.154;13.812;2022-10-16T10:51:46;99431.41;;;20.81;77.97
39105;BME280;46464;51.154;13.812;2022-10-16T10:54:17;99438.19;;;20.87;78.64
39105;BME280;46464;51.154;13.812;2022-10-16T10:56:56;99437.50;;;20.94;80.09
39105;BME280;46464;51.154;13.812;2022-10-16T11:01:58;99448.03;;;20.99;78.37
39105;BME280;46464;51.154;13.812;2022-10-16T11:07:15;99447.78;;;20.81;78.05
39105;BME280;46464;51.154;13.812;2022-10-16T11:09:51;99442.22;;;20.83;79.03
39105;BME280;46464;51.154;13.812;2022-10-16T11:12:32;99441.03;;;20.75;78.39
39105;BME280;46464;51.154;13.812;2022-10-16T11:17:57;99439.03;;;20.87;80.73
39105;BME280;46464;51.154;13.812;2022-10-16T11:20:31;99431.03;;;20.95;76.68
39105;BME280;46464;51.154;13.812;2022-10-16T11:25:43;99437.56;;;21.14;75.08
39105;BME280;46464;51.154;13.812;2022-10-16T11:28:12;99433.56;;;21.18;74.84
39105;BME280;46464;51.154;13.812;2022-10-16T11:30:42;99437.00;;;21.10;75.19
39105;BME280;46464;51.154;13.812;2022-10-16T11:33:18;99435.41;;;21.08;76.07
39105;BME280;46464;51.154;13.812;2022-10-16T11:36:00;99441.72;;;21.08;75.74
39105;BME280;46464;51.154;13.812;2022-10-16T11:40:56;99441.75;;;21.18;75.80
39105;BME280;46464;51.154;13.812;2022-10-16T11:43:27;99448.75;;;21.11;75.20
39105;BME280;46464;51.154;13.812;2022-10-16T11:45:55;99443.78;;;21.16;76.29
39105;BME280;46464;51.154;13.812;2022-10-16T11:48:33;99448.66;;;21.12;75.35
39105;BME280;46464;51.154;13.812;2022-10-16T11:51:05;99450.09;;;21.17;75.44
39105;BME280;46464;51.154;13.812;2022-10-16T12:01:29;99459.75;;;21.31;72.96
39105;BME280;46464;51.154;13.812;2022-10-16T12:04:16;99458.34;;;21.36;73.23
39105;BME280;46464;51.154;13.812;2022-10-16T12:06:48;99459.91;;;21.29;72.17
39105;BME280;46464;51.154;13.812;2022-10-16T12:09:29;99461.34;;;21.33;72.98
39105;BME280;46464;51.154;13.812;2022-10-16T12:11:56;99455.91;;;21.43;73.49
39105;BME280;46464;51.154;13.812;2022-10-16T12:17:03;99454.63;;;21.47;71.88
39105;BME280;46464;51.154;13.812;2022-10-16T12:19:32;99457.47;;;21.36;71.57
39105;BME280;46464;51.154;13.812;2022-10-16T12:21:59;99461.06;;;21.26;72.34
39105;BME280;46464;51.154;13.812;2022-10-16T12:24:34;99470.94;;;21.18;71.59
39105;BME280;46464;51.154;13.812;2022-10-16T12:27:20;99463.19;;;21.23;72.61
39105;BME280;46464;51.154;13.812;2022-10-16T12:29:53;99463.00;;;21.15;72.86
39105;BME280;46464;51.154;13.812;2022-10-16T12:32:34;99468.31;;;21.06;72.89
39105;BME280;46464;51.154;13.812;2022-10-16T12:35:26;99474.38;;;21.10;73.02
39105;BME280;46464;51.154;13.812;2022-10-16T12:37:53;99469.13;;;20.97;74.06
39105;BME280;46464;51.154;13.812;2022-10-16T12:42:49;99469.69;;;20.91;74.51
39105;BME280;46464;51.154;13.812;2022-10-16T12:45:24;99473.44;;;21.00;74.26
39105;BME280;46464;51.154;13.812;2022-10-16T12:47:52;99475.03;;;21.02;75.04
39105;BME280;46464;51.154;13.812;2022-10-16T12:50:36;99478.06;;;20.99;74.08
39105;BME280;46464;51.154;13.812;2022-10-16T12:53:04;99478.22;;;20.98;74.97
39105;BME280;46464;51.154;13.812;2022-10-16T12:55:45;99489.97;;;20.98;75.24
39105;BME280;46464;51.154;13.812;2022-10-16T13:01:43;99493.16;;;21.03;75.34
39105;BME280;46464;51.154;13.812;2022-10-16T13:14:23;99502.25;;;21.04;74.52
39105;BME280;46464;51.154;13.812;2022-10-16T13:17:00;99491.91;;;21.07;74.38
39105;BME280;46464;51.154;13.812;2022-10-16T13:20:20;99494.34;;;21.10;74.73
39105;BME280;46464;51.154;13.812;2022-10-16T13:24:57;99506.31;;;21.19;74.57
39105;BME280;46464;51.154;13.812;2022-10-16T13:27:46;99513.38;;;21.22;74.48
39105;BME280;46464;51.154;13.812;2022-10-16T13:30:24;99512.19;;;21.15;72.89
39105;BME280;46464;51.154;13.812;2022-10-16T13:33:10;99505.41;;;21.09;72.23
39105;BME280;46464;51.154;13.812;2022-10-16T13:35:46;99506.56;;;21.06;72.96
39105;BME280;46464;51.154;13.812;2022-10-16T13:38:14;99506.81;;;21.03;72.08
39105;BME280;46464;51.154;13.812;2022-10-16T13:40:51;99506.66;;;21.05;73.02
39105;BME280;46464;51.154;13.812;2022-10-16T13:43:24;99502.91;;;20.96;72.68
39105;BME280;46464;51.154;13.812;2022-10-16T13:45:56;99496.13;;;20.90;73.89
39105;BME280;46464;51.154;13.812;2022-10-16T13:48:23;99500.31;;;20.94;74.12
39105;BME280;46464;51.154;13.812;2022-10-16T13:53:26;99501.59;;;20.90;74.32
39105;BME280;46464;51.154;13.812;2022-10-16T13:55:52;99505.72;;;20.85;74.86
39105;BME280;46464;51.154;13.812;2022-10-16T13:58:18;99509.72;;;20.80;76.06
39105;BME280;46464;51.154;13.812;2022-10-16T14:03:20;99518.81;;;20.70;75.12
39105;BME280;46464;51.154;13.812;2022-10-16T14:05:51;99515.63;;;20.64;75.48
39105;BME280;46464;51.154;13.812;2022-10-16T14:08:18;99511.56;;;20.59;76.72
39105;BME280;46464;51.154;13.812;2022-10-16T14:10:56;99518.16;;;20.56;77.63
39105;BME280;46464;51.154;13.812;2022-10-16T14:16:21;99523.75;;;20.55;78.02
39105;BME280;46464;51.154;13.812;2022-10-16T14:18:58;99524.59;;;20.55;78.44
39105;BME280;46464;51.154;13.812;2022-10-16T14:21:25;99522.75;;;20.56;78.36
39105;BME280;46464;51.154;13.812;2022-10-16T14:23:55;99522.75;;;20.56;78.47
39105;BME280;46464;51.154;13.812;2022-10-16T14:26:23;99523.09;;;20.62;78.24
39105;BME280;46464;51.154;13.812;2022-10-16T14:29:00;99518.91;;;20.58;78.67
39105;BME280;46464;51.154;13.812;2022-10-16T14:31:30;99516.31;;;20.57;78.88
39105;BME280;46464;51.154;13.812;2022-10-16T14:33:57;99521.03;;;20.55;78.85
39105;BME280;46464;51.154;13.812;2022-10-16T14:36:25;99521.03;;;20.55;78.44
39105;BME280;46464;51.154;13.812;2022-10-16T14:41:24;99527.28;;;20.45;79.48
39105;BME280;46464;51.154;13.812;2022-10-16T14:43:52;99522.97;;;20.43;79.77
39105;BME280;46464;51.154;13.812;2022-10-16T14:46:19;99526.81;;;20.40;80.12
39105;BME280;46464;51.154;13.812;2022-10-16T14:48:47;99531.41;;;20.40;80.35